sensor_id;sensor_type;location;lat;lon;timestamp;temperature;humidity
8095;DHT22;4090;49.270;8.696;2023-05-16T00:01:43;18.10;99.90
8095;DHT22;4090;49.270;8.696;2023-05-16T00:04:25;18.20;99.90
8095;DHT22;4090;49.270;8.696;2023-05-16T00:07:06;18.10;99.90
8095;DHT22;4090;49.270;8.696;2023-05-16T00:09:48;18.10;99.90
8095;DHT22;4090;49.270;8.696;2023-05-16T00:12:31;18.00;99.90
8095;DHT22;4090;49.270;8.696;2023-05-16T00:15:13;18.00;99.90
8095;DHT22;4090;49.270;8.696;2023-05-16T00:17:55;17.90;99.90
8095;DHT22;4090;49.270;8.696;2023-05-16T00:20:38;17.90;99.90
8095;DHT22;4090;49.270;8.696;2023-05-16T00:23:20;17.90;99.90
8095;DHT22;4090;49.270;8.696;2023-05-16T00:26:02;17.90;99.90
8095;DHT22;4090;49.270;8.696;2023-05-16T00:28:45;17.90;99.90
8095;DHT22;4090;49.270;8.696;2023-05-16T00:31:27;17.90;99.90
8095;DHT22;4090;49.270;8.696;2023-05-16T00:34:08;17.90;99.90
8095;DHT22;4090;49.270;8.696;2023-05-16T00:36:50;17.90;99.90
8095;DHT22;4090;49.270;8.696;2023-05-16T00:39:32;17.80;99.90
8095;DHT22;4090;49.270;8.696;2023-05-16T00:42:14;17.80;99.90
8095;DHT22;4090;49.270;8.696;2023-05-16T00:44:57;17.90;99.90
8095;DHT22;4090;49.270;8.696;2023-05-16T00:47:39;17.80;99.90
8095;DHT22;4090;49.270;8.696;2023-05-16T00:50:21;17.80;99.90
8095;DHT22;4090;49.270;8.696;2023-05-16T00:53:03;17.70;99.90
8095;DHT22;4090;49.270;8.696;2023-05-16T00:55:45;17.80;99.90
8095;DHT22;4090;49.270;8.696;2023-05-16T00:58:28;17.70;99.90
8095;DHT22;4090;49.270;8.696;2023-05-16T01:01:13;17.70;99.90
8095;DHT22;4090;49.270;8.696;2023-05-16T01:03:54;17.70;99.90
8095;DHT22;4090;49.270;8.696;2023-05-16T01:06:36;17.70;99.90
8095;DHT22;4090;49.270;8.696;2023-05-16T01:09:19;17.70;99.90
8095;DHT22;4090;49.270;8.696;2023-05-16T01:12:04;17.70;99.90
8095;DHT22;4090;49.270;8.696;2023-05-16T01:14:51;17.70;99.90
8095;DHT22;4090;49.270;8.696;2023-05-16T01:17:40;17.70;99.90
8095;DHT22;4090;49.270;8.696;2023-05-16T01:20:27;17.50;99.90
8095;DHT22;4090;49.270;8.696;2023-05-16T01:23:18;17.70;99.90
8095;DHT22;4090;49.270;8.696;2023-05-16T01:26:12;17.70;99.90
8095;DHT22;4090;49.270;8.696;2023-05-16T01:28:54;17.60;99.90
8095;DHT22;4090;49.270;8.696;2023-05-16T01:31:36;17.80;99.90
8095;DHT22;4090;49.270;8.696;2023-05-16T01:34:19;17.60;99.90
8095;DHT22;4090;49.270;8.696;2023-05-16T01:37:03;17.60;99.90
8095;DHT22;4090;49.270;8.696;2023-05-16T01:39:49;17.60;99.90
8095;DHT22;4090;49.270;8.696;2023-05-16T01:42:36;17.60;99.90
8095;DHT22;4090;49.270;8.696;2023-05-16T01:45:21;17.60;99.90
8095;DHT22;4090;49.270;8.696;2023-05-16T01:48:06;17.60;99.90
8095;DHT22;4090;49.270;8.696;2023-05-16T01:50:51;17.60;99.90
8095;DHT22;4090;49.270;8.696;2023-05-16T01:53:35;17.60;99.90
8095;DHT22;4090;49.270;8.696;2023-05-16T01:56:20;17.60;99.90
8095;DHT22;4090;49.270;8.696;2023-05-16T01:59:03;17.60;99.90
8095;DHT22;4090;49.270;8.696;2023-05-16T02:01:46;17.60;99.90
8095;DHT22;4090;49.270;8.696;2023-05-16T02:04:28;17.60;99.90
8095;DHT22;4090;49.270;8.696;2023-05-16T02:07:09;17.60;99.90
8095;DHT22;4090;49.270;8.696;2023-05-16T02:09:51;17.60;99.90
8095;DHT22;4090;49.270;8.696;2023-05-16T02:12:33;17.50;99.90
8095;DHT22;4090;49.270;8.696;2023-05-16T02:15:17;17.50;99.90
8095;DHT22;4090;49.270;8.696;2023-05-16T02:17:58;17.50;99.90
8095;DHT22;4090;49.270;8.696;2023-05-16T02:20:40;17.50;99.90
8095;DHT22;4090;49.270;8.696;2023-05-16T02:23:22;17.50;99.90
8095;DHT22;4090;49.270;8.696;2023-05-16T02:26:04;17.50;99.90
8095;DHT22;4090;49.270;8.696;2023-05-16T02:28:45;17.40;99.90
8095;DHT22;4090;49.270;8.696;2023-05-16T02:31:30;17.40;99.90
8095;DHT22;4090;49.270;8.696;2023-05-16T02:34:13;17.60;99.90
8095;DHT22;4090;49.270;8.696;2023-05-16T02:36:56;17.50;99.90
8095;DHT22;4090;49.270;8.696;2023-05-16T02:39:38;17.40;99.90
8095;DHT22;4090;49.270;8.696;2023-05-16T02:42:19;17.40;99.90
8095;DHT22;4090;49.270;8.696;2023-05-16T02:45:01;17.40;99.90
8095;DHT22;4090;49.270;8.696;2023-05-16T02:47:46;17.40;99.90
8095;DHT22;4090;49.270;8.696;2023-05-16T02:50:27;17.60;99.90
8095;DHT22;4090;49.270;8.696;2023-05-16T02:53:09;17.40;99.90
8095;DHT22;4090;49.270;8.696;2023-05-16T02:55:51;17.30;99.90
8095;DHT22;4090;49.270;8.696;2023-05-16T02:58:33;17.40;99.90
8095;DHT22;4090;49.270;8.696;2023-05-16T03:01:15;17.50;99.90
8095;DHT22;4090;49.270;8.696;2023-05-16T03:03:58;17.30;99.90
8095;DHT22;4090;49.270;8.696;2023-05-16T03:06:40;17.20;99.90
8095;DHT22;4090;49.270;8.696;2023-05-16T03:09:24;17.20;99.90
8095;DHT22;4090;49.270;8.696;2023-05-16T03:12:05;17.20;99.90
8095;DHT22;4090;49.270;8.696;2023-05-16T03:14:48;17.10;99.90
8095;DHT22;4090;49.270;8.696;2023-05-16T03:17:31;17.10;99.90
8095;DHT22;4090;49.270;8.696;2023-05-16T03:20:14;17.10;99.90
8095;DHT22;4090;49.270;8.696;2023-05-16T03:22:56;17.10;99.90
8095;DHT22;4090;49.270;8.696;2023-05-16T03:25:37;17.00;99.90
8095;DHT22;4090;49.270;8.696;2023-05-16T03:28:19;17.00;99.90
8095;DHT22;4090;49.270;8.696;2023-05-16T03:31:01;17.00;99.90
8095;DHT22;4090;49.270;8.696;2023-05-16T03:33:43;16.90;99.90
8095;DHT22;4090;49.270;8.696;2023-05-16T03:36:26;16.90;99.90
8095;DHT22;4090;49.270;8.696;2023-05-16T03:39:08;16.90;99.90
8095;DHT22;4090;49.270;8.696;2023-05-16T03:41:50;16.80;99.90
8095;DHT22;4090;49.270;8.696;2023-05-16T03:44:35;16.90;99.90
8095;DHT22;4090;49.270;8.696;2023-05-16T03:47:17;16.90;99.90
8095;DHT22;4090;49.270;8.696;2023-05-16T03:49:59;16.90;99.90
8095;DHT22;4090;49.270;8.696;2023-05-16T03:52:42;16.80;99.90
8095;DHT22;4090;49.270;8.696;2023-05-16T03:55:23;16.80;99.90
8095;DHT22;4090;49.270;8.696;2023-05-16T03:58:05;16.80;99.90
8095;DHT22;4090;49.270;8.696;2023-05-16T04:00:47;16.80;99.90
8095;DHT22;4090;49.270;8.696;2023-05-16T04:03:29;16.80;99.90
8095;DHT22;4090;49.270;8.696;2023-05-16T04:06:10;16.80;99.90
8095;DHT22;4090;49.270;8.696;2023-05-16T04:08:53;16.80;99.90
8095;DHT22;4090;49.270;8.696;2023-05-16T04:11:35;16.80;99.90
8095;DHT22;4090;49.270;8.696;2023-05-16T04:14:18;16.80;99.90
8095;DHT22;4090;49.270;8.696;2023-05-16T04:17:00;16.80;99.90
8095;DHT22;4090;49.270;8.696;2023-05-16T04:19:42;16.80;99.90
8095;DHT22;4090;49.270;8.696;2023-05-16T04:22:23;16.70;99.90
8095;DHT22;4090;49.270;8.696;2023-05-16T04:25:07;16.70;99.90
8095;DHT22;4090;49.270;8.696;2023-05-16T04:27:50;16.70;99.90
8095;DHT22;4090;49.270;8.696;2023-05-16T04:30:33;16.70;99.90
8095;DHT22;4090;49.270;8.696;2023-05-16T04:33:14;16.70;99.90
8095;DHT22;4090;49.270;8.696;2023-05-16T04:35:57;16.60;99.90
8095;DHT22;4090;49.270;8.696;2023-05-16T04:38:38;16.70;99.90
8095;DHT22;4090;49.270;8.696;2023-05-16T04:41:22;16.70;99.90
8095;DHT22;4090;49.270;8.696;2023-05-16T04:44:04;16.60;99.90
8095;DHT22;4090;49.270;8.696;2023-05-16T04:46:46;16.60;99.90
8095;DHT22;4090;49.270;8.696;2023-05-16T04:49:28;16.50;99.90
8095;DHT22;4090;49.270;8.696;2023-05-16T04:52:09;16.50;99.90
8095;DHT22;4090;49.270;8.696;2023-05-16T04:54:51;16.50;99.90
8095;DHT22;4090;49.270;8.696;2023-05-16T04:57:34;16.50;99.90
8095;DHT22;4090;49.270;8.696;2023-05-16T05:00:16;16.50;99.90
8095;DHT22;4090;49.270;8.696;2023-05-16T05:02:58;16.50;99.90
8095;DHT22;4090;49.270;8.696;2023-05-16T05:05:40;16.50;99.90
8095;DHT22;4090;49.270;8.696;2023-05-16T05:08:21;16.40;99.90
8095;DHT22;4090;49.270;8.696;2023-05-16T05:11:03;16.50;99.90
8095;DHT22;4090;49.270;8.696;2023-05-16T05:13:46;16.50;99.90
8095;DHT22;4090;49.270;8.696;2023-05-16T05:16:28;16.40;99.90
8095;DHT22;4090;49.270;8.696;2023-05-16T05:19:10;16.40;99.90
8095;DHT22;4090;49.270;8.696;2023-05-16T05:21:51;16.40;99.90
8095;DHT22;4090;49.270;8.696;2023-05-16T05:24:33;16.30;99.90
8095;DHT22;4090;49.270;8.696;2023-05-16T05:27:15;16.50;99.90
8095;DHT22;4090;49.270;8.696;2023-05-16T05:29:58;16.40;99.90
8095;DHT22;4090;49.270;8.696;2023-05-16T05:32:40;16.40;99.90
8095;DHT22;4090;49.270;8.696;2023-05-16T05:35:22;16.40;99.90
8095;DHT22;4090;49.270;8.696;2023-05-16T05:38:03;16.40;99.90
8095;DHT22;4090;49.270;8.696;2023-05-16T05:40:45;16.40;99.90
8095;DHT22;4090;49.270;8.696;2023-05-16T05:43:27;16.30;99.90
8095;DHT22;4090;49.270;8.696;2023-05-16T05:46:10;16.20;99.90
8095;DHT22;4090;49.270;8.696;2023-05-16T05:48:52;16.20;99.90
8095;DHT22;4090;49.270;8.696;2023-05-16T05:51:34;16.20;99.90
8095;DHT22;4090;49.270;8.696;2023-05-16T05:54:15;16.20;99.90
8095;DHT22;4090;49.270;8.696;2023-05-16T05:56:57;16.20;99.90
8095;DHT22;4090;49.270;8.696;2023-05-16T05:59:45;16.20;99.90
8095;DHT22;4090;49.270;8.696;2023-05-16T06:02:28;16.20;99.90
8095;DHT22;4090;49.270;8.696;2023-05-16T06:05:10;16.10;99.90
8095;DHT22;4090;49.270;8.696;2023-05-16T06:07:52;16.10;99.90
8095;DHT22;4090;49.270;8.696;2023-05-16T06:10:33;16.10;99.90
8095;DHT22;4090;49.270;8.696;2023-05-16T06:13:15;16.10;99.90
8095;DHT22;4090;49.270;8.696;2023-05-16T06:15:57;16.10;99.90
8095;DHT22;4090;49.270;8.696;2023-05-16T06:18:40;16.00;99.90
8095;DHT22;4090;49.270;8.696;2023-05-16T06:21:22;16.10;99.90
8095;DHT22;4090;49.270;8.696;2023-05-16T06:24:04;16.10;99.90
8095;DHT22;4090;49.270;8.696;2023-05-16T06:26:45;16.10;99.90
8095;DHT22;4090;49.270;8.696;2023-05-16T06:29:29;16.10;99.90
8095;DHT22;4090;49.270;8.696;2023-05-16T06:32:11;16.20;99.90
8095;DHT22;4090;49.270;8.696;2023-05-16T06:34:54;16.20;99.90
8095;DHT22;4090;49.270;8.696;2023-05-16T06:37:36;16.20;99.90
8095;DHT22;4090;49.270;8.696;2023-05-16T06:40:18;16.20;99.90
8095;DHT22;4090;49.270;8.696;2023-05-16T06:43:00;16.30;99.90
8095;DHT22;4090;49.270;8.696;2023-05-16T06:45:41;16.20;99.90
8095;DHT22;4090;49.270;8.696;2023-05-16T06:48:26;16.20;99.90
8095;DHT22;4090;49.270;8.696;2023-05-16T06:51:09;16.20;99.90
8095;DHT22;4090;49.270;8.696;2023-05-16T06:53:51;16.20;99.90
8095;DHT22;4090;49.270;8.696;2023-05-16T06:56:33;16.20;99.90
8095;DHT22;4090;49.270;8.696;2023-05-16T06:59:14;16.40;99.90
8095;DHT22;4090;49.270;8.696;2023-05-16T07:01:56;16.20;99.90
8095;DHT22;4090;49.270;8.696;2023-05-16T07:04:38;16.30;99.90
8095;DHT22;4090;49.270;8.696;2023-05-16T07:07:21;16.30;99.90
8095;DHT22;4090;49.270;8.696;2023-05-16T07:10:03;16.30;99.90
8095;DHT22;4090;49.270;8.696;2023-05-16T07:12:45;16.30;99.90
8095;DHT22;4090;49.270;8.696;2023-05-16T07:15:27;16.40;99.90
8095;DHT22;4090;49.270;8.696;2023-05-16T07:18:08;16.40;99.90
8095;DHT22;4090;49.270;8.696;2023-05-16T07:20:50;16.60;99.90
8095;DHT22;4090;49.270;8.696;2023-05-16T07:23:33;16.50;99.90
8095;DHT22;4090;49.270;8.696;2023-05-16T07:26:15;16.50;99.90
8095;DHT22;4090;49.270;8.696;2023-05-16T07:28:57;16.50;99.90
8095;DHT22;4090;49.270;8.696;2023-05-16T07:31:39;16.60;99.90
8095;DHT22;4090;49.270;8.696;2023-05-16T07:34:20;16.60;99.90
8095;DHT22;4090;49.270;8.696;2023-05-16T07:37:02;16.60;99.90
8095;DHT22;4090;49.270;8.696;2023-05-16T07:39:45;16.70;99.90
8095;DHT22;4090;49.270;8.696;2023-05-16T07:42:27;16.60;99.90
8095;DHT22;4090;49.270;8.696;2023-05-16T07:45:09;16.60;99.90
8095;DHT22;4090;49.270;8.696;2023-05-16T07:47:51;16.70;99.90
8095;DHT22;4090;49.270;8.696;2023-05-16T07:50:32;16.70;99.90
8095;DHT22;4090;49.270;8.696;2023-05-16T07:53:14;16.80;99.90
8095;DHT22;4090;49.270;8.696;2023-05-16T07:55:57;16.70;99.90
8095;DHT22;4090;49.270;8.696;2023-05-16T07:58:39;16.70;99.90
8095;DHT22;4090;49.270;8.696;2023-05-16T08:01:21;16.70;99.90
8095;DHT22;4090;49.270;8.696;2023-05-16T08:04:03;16.80;99.90
8095;DHT22;4090;49.270;8.696;2023-05-16T08:06:45;16.80;99.90
8095;DHT22;4090;49.270;8.696;2023-05-16T08:09:27;16.80;99.90
8095;DHT22;4090;49.270;8.696;2023-05-16T08:12:10;16.80;99.90
8095;DHT22;4090;49.270;8.696;2023-05-16T08:14:52;16.80;99.90
8095;DHT22;4090;49.270;8.696;2023-05-16T08:17:34;16.80;99.90
8095;DHT22;4090;49.270;8.696;2023-05-16T08:20:16;16.90;99.90
8095;DHT22;4090;49.270;8.696;2023-05-16T08:22:58;16.80;99.90
8095;DHT22;4090;49.270;8.696;2023-05-16T08:25:40;16.90;99.90
8095;DHT22;4090;49.270;8.696;2023-05-16T08:28:23;16.90;99.90
8095;DHT22;4090;49.270;8.696;2023-05-16T08:31:05;16.90;99.90
8095;DHT22;4090;49.270;8.696;2023-05-16T08:33:46;16.90;99.90
8095;DHT22;4090;49.270;8.696;2023-05-16T08:36:28;16.90;99.90
8095;DHT22;4090;49.270;8.696;2023-05-16T08:39:11;16.90;99.90
8095;DHT22;4090;49.270;8.696;2023-05-16T08:41:52;17.10;99.90
8095;DHT22;4090;49.270;8.696;2023-05-16T08:44:35;16.90;99.90
8095;DHT22;4090;49.270;8.696;2023-05-16T08:47:18;16.90;99.90
8095;DHT22;4090;49.270;8.696;2023-05-16T08:50:01;16.90;99.90
8095;DHT22;4090;49.270;8.696;2023-05-16T08:52:43;16.90;99.90
8095;DHT22;4090;49.270;8.696;2023-05-16T08:55:27;17.00;99.90
8095;DHT22;4090;49.270;8.696;2023-05-16T08:58:09;16.90;99.90
8095;DHT22;4090;49.270;8.696;2023-05-16T09:00:52;16.90;99.90
8095;DHT22;4090;49.270;8.696;2023-05-16T09:03:34;16.90;99.90
8095;DHT22;4090;49.270;8.696;2023-05-16T09:06:17;16.90;99.90
8095;DHT22;4090;49.270;8.696;2023-05-16T09:08:59;16.90;99.90
8095;DHT22;4090;49.270;8.696;2023-05-16T09:11:42;16.90;99.90
8095;DHT22;4090;49.270;8.696;2023-05-16T09:14:23;17.00;99.90
8095;DHT22;4090;49.270;8.696;2023-05-16T09:17:07;17.00;99.90
8095;DHT22;4090;49.270;8.696;2023-05-16T09:19:49;17.00;99.90
8095;DHT22;4090;49.270;8.696;2023-05-16T09:22:33;17.00;99.90
8095;DHT22;4090;49.270;8.696;2023-05-16T09:25:15;17.10;99.90
8095;DHT22;4090;49.270;8.696;2023-05-16T09:27:58;17.10;99.90
8095;DHT22;4090;49.270;8.696;2023-05-16T09:30:40;17.10;99.90
8095;DHT22;4090;49.270;8.696;2023-05-16T09:33:28;17.20;99.90
8095;DHT22;4090;49.270;8.696;2023-05-16T09:36:10;17.30;99.90
8095;DHT22;4090;49.270;8.696;2023-05-16T09:38:52;17.30;99.90
8095;DHT22;4090;49.270;8.696;2023-05-16T09:41:34;17.40;99.90
8095;DHT22;4090;49.270;8.696;2023-05-16T09:44:16;17.40;99.90
8095;DHT22;4090;49.270;8.696;2023-05-16T09:46:59;17.40;99.90
8095;DHT22;4090;49.270;8.696;2023-05-16T09:49:42;17.40;99.90
8095;DHT22;4090;49.270;8.696;2023-05-16T09:52:25;17.50;99.90
8095;DHT22;4090;49.270;8.696;2023-05-16T09:55:07;17.50;99.90
8095;DHT22;4090;49.270;8.696;2023-05-16T09:57:49;17.50;99.90
8095;DHT22;4090;49.270;8.696;2023-05-16T10:00:31;17.60;99.90
8095;DHT22;4090;49.270;8.696;2023-05-16T10:03:13;17.60;99.90
8095;DHT22;4090;49.270;8.696;2023-05-16T10:05:57;17.60;99.90
8095;DHT22;4090;49.270;8.696;2023-05-16T10:08:40;17.70;99.90
8095;DHT22;4090;49.270;8.696;2023-05-16T10:11:22;17.70;99.90
8095;DHT22;4090;49.270;8.696;2023-05-16T10:14:04;17.70;99.90
8095;DHT22;4090;49.270;8.696;2023-05-16T10:16:47;17.70;99.90
8095;DHT22;4090;49.270;8.696;2023-05-16T10:19:30;17.80;99.90
8095;DHT22;4090;49.270;8.696;2023-05-16T10:22:14;17.70;99.90
8095;DHT22;4090;49.270;8.696;2023-05-16T10:24:57;17.70;99.90
8095;DHT22;4090;49.270;8.696;2023-05-16T10:27:41;17.70;99.90
8095;DHT22;4090;49.270;8.696;2023-05-16T10:30:23;17.80;99.90
8095;DHT22;4090;49.270;8.696;2023-05-16T10:33:06;17.70;99.90
8095;DHT22;4090;49.270;8.696;2023-05-16T10:35:49;17.80;99.90
8095;DHT22;4090;49.270;8.696;2023-05-16T10:38:32;17.80;99.90
8095;DHT22;4090;49.270;8.696;2023-05-16T10:41:14;17.90;99.90
8095;DHT22;4090;49.270;8.696;2023-05-16T10:43:57;17.80;99.90
8095;DHT22;4090;49.270;8.696;2023-05-16T10:46:39;17.70;99.90
8095;DHT22;4090;49.270;8.696;2023-05-16T10:49:21;17.70;99.90
8095;DHT22;4090;49.270;8.696;2023-05-16T10:52:05;17.70;99.90
8095;DHT22;4090;49.270;8.696;2023-05-16T10:54:50;17.70;99.90
8095;DHT22;4090;49.270;8.696;2023-05-16T10:57:32;17.70;99.90
8095;DHT22;4090;49.270;8.696;2023-05-16T11:00:20;17.60;99.90
8095;DHT22;4090;49.270;8.696;2023-05-16T11:03:03;17.60;99.90
8095;DHT22;4090;49.270;8.696;2023-05-16T11:05:49;17.60;99.90
8095;DHT22;4090;49.270;8.696;2023-05-16T11:08:31;17.50;99.90
8095;DHT22;4090;49.270;8.696;2023-05-16T11:14:20;17.50;99.90
8095;DHT22;4090;49.270;8.696;2023-05-16T11:17:05;17.50;99.90
8095;DHT22;4090;49.270;8.696;2023-05-16T11:19:48;17.50;99.90
8095;DHT22;4090;49.270;8.696;2023-05-16T11:22:31;17.50;99.90
8095;DHT22;4090;49.270;8.696;2023-05-16T11:25:13;17.50;99.90
8095;DHT22;4090;49.270;8.696;2023-05-16T11:27:54;17.50;99.90
8095;DHT22;4090;49.270;8.696;2023-05-16T11:30:38;17.50;99.90
8095;DHT22;4090;49.270;8.696;2023-05-16T11:33:22;17.50;99.90
8095;DHT22;4090;49.270;8.696;2023-05-16T11:36:05;17.50;99.90
8095;DHT22;4090;49.270;8.696;2023-05-16T11:38:47;17.50;99.90
8095;DHT22;4090;49.270;8.696;2023-05-16T11:41:28;17.50;99.90
8095;DHT22;4090;49.270;8.696;2023-05-16T11:44:10;17.50;99.90
8095;DHT22;4090;49.270;8.696;2023-05-16T11:46:53;17.60;99.90
8095;DHT22;4090;49.270;8.696;2023-05-16T11:49:35;17.50;99.90
8095;DHT22;4090;49.270;8.696;2023-05-16T11:52:17;17.70;99.90
8095;DHT22;4090;49.270;8.696;2023-05-16T11:55:01;17.60;99.90
8095;DHT22;4090;49.270;8.696;2023-05-16T11:57:44;17.60;99.90
8095;DHT22;4090;49.270;8.696;2023-05-16T12:00:26;17.60;99.90
8095;DHT22;4090;49.270;8.696;2023-05-16T12:03:09;17.60;99.90
8095;DHT22;4090;49.270;8.696;2023-05-16T12:05:51;17.70;99.90
8095;DHT22;4090;49.270;8.696;2023-05-16T12:08:33;17.70;99.90
8095;DHT22;4090;49.270;8.696;2023-05-16T12:11:15;17.70;99.90
8095;DHT22;4090;49.270;8.696;2023-05-16T12:13:57;17.70;99.90
8095;DHT22;4090;49.270;8.696;2023-05-16T12:16:39;17.70;99.90
8095;DHT22;4090;49.270;8.696;2023-05-16T12:19:23;17.60;99.90
8095;DHT22;4090;49.270;8.696;2023-05-16T12:22:04;17.70;99.90
8095;DHT22;4090;49.270;8.696;2023-05-16T12:24:53;17.70;99.90
8095;DHT22;4090;49.270;8.696;2023-05-16T12:27:34;17.70;99.90
8095;DHT22;4090;49.270;8.696;2023-05-16T12:30:16;17.70;99.90
8095;DHT22;4090;49.270;8.696;2023-05-16T12:32:59;17.70;99.90
8095;DHT22;4090;49.270;8.696;2023-05-16T12:35:43;17.70;99.90
8095;DHT22;4090;49.270;8.696;2023-05-16T12:38:25;17.70;99.90
8095;DHT22;4090;49.270;8.696;2023-05-16T12:41:07;17.80;99.90
8095;DHT22;4090;49.270;8.696;2023-05-16T12:43:49;17.80;99.90
8095;DHT22;4090;49.270;8.696;2023-05-16T12:46:31;17.80;99.90
8095;DHT22;4090;49.270;8.696;2023-05-16T12:49:13;17.90;99.90
8095;DHT22;4090;49.270;8.696;2023-05-16T12:51:56;17.90;99.90
8095;DHT22;4090;49.270;8.696;2023-05-16T12:54:45;17.90;99.90
8095;DHT22;4090;49.270;8.696;2023-05-16T12:57:26;18.00;99.90
8095;DHT22;4090;49.270;8.696;2023-05-16T13:00:09;18.10;99.90
8095;DHT22;4090;49.270;8.696;2023-05-16T13:02:51;18.10;99.90
8095;DHT22;4090;49.270;8.696;2023-05-16T13:05:34;18.10;99.90
8095;DHT22;4090;49.270;8.696;2023-05-16T13:08:17;18.20;99.90
8095;DHT22;4090;49.270;8.696;2023-05-16T13:10:59;18.20;99.90
8095;DHT22;4090;49.270;8.696;2023-05-16T13:13:41;18.20;99.90
8095;DHT22;4090;49.270;8.696;2023-05-16T13:16:23;18.10;99.90
8095;DHT22;4090;49.270;8.696;2023-05-16T13:19:05;18.10;99.90
8095;DHT22;4090;49.270;8.696;2023-05-16T13:21:47;18.10;99.90
8095;DHT22;4090;49.270;8.696;2023-05-16T13:24:30;18.10;99.90
8095;DHT22;4090;49.270;8.696;2023-05-16T13:27:14;18.10;99.90
8095;DHT22;4090;49.270;8.696;2023-05-16T13:29:56;18.10;99.90
8095;DHT22;4090;49.270;8.696;2023-05-16T13:32:38;18.20;99.90
8095;DHT22;4090;49.270;8.696;2023-05-16T13:35:19;18.30;99.90
8095;DHT22;4090;49.270;8.696;2023-05-16T13:38:01;18.20;99.90
8095;DHT22;4090;49.270;8.696;2023-05-16T13:40:44;18.10;99.90
8095;DHT22;4090;49.270;8.696;2023-05-16T13:43:26;18.10;99.90
8095;DHT22;4090;49.270;8.696;2023-05-16T13:46:08;18.10;99.90
8095;DHT22;4090;49.270;8.696;2023-05-16T13:48:49;18.10;99.90
8095;DHT22;4090;49.270;8.696;2023-05-16T13:51:31;18.20;99.90
8095;DHT22;4090;49.270;8.696;2023-05-16T13:54:13;18.10;99.90
8095;DHT22;4090;49.270;8.696;2023-05-16T13:56:56;18.10;99.90
8095;DHT22;4090;49.270;8.696;2023-05-16T13:59:38;18.10;99.90
8095;DHT22;4090;49.270;8.696;2023-05-16T14:02:19;18.20;99.90
8095;DHT22;4090;49.270;8.696;2023-05-16T14:05:01;18.10;99.90
8095;DHT22;4090;49.270;8.696;2023-05-16T14:07:43;18.10;99.90
8095;DHT22;4090;49.270;8.696;2023-05-16T14:10:25;18.10;99.90
8095;DHT22;4090;49.270;8.696;2023-05-16T14:13:08;18.20;99.90
8095;DHT22;4090;49.270;8.696;2023-05-16T14:15:49;18.20;99.90
8095;DHT22;4090;49.270;8.696;2023-05-16T14:18:31;18.20;99.90
8095;DHT22;4090;49.270;8.696;2023-05-16T14:21:13;18.30;99.90
8095;DHT22;4090;49.270;8.696;2023-05-16T14:23:55;18.50;99.90
8095;DHT22;4090;49.270;8.696;2023-05-16T14:26:36;18.30;99.90
8095;DHT22;4090;49.270;8.696;2023-05-16T14:29:19;18.30;99.90
8095;DHT22;4090;49.270;8.696;2023-05-16T14:32:01;18.40;99.90
8095;DHT22;4090;49.270;8.696;2023-05-16T14:34:43;18.40;99.90
8095;DHT22;4090;49.270;8.696;2023-05-16T14:37:25;18.50;99.90
8095;DHT22;4090;49.270;8.696;2023-05-16T14:40:07;18.60;99.00
8095;DHT22;4090;49.270;8.696;2023-05-16T14:42:49;18.60;97.70
8095;DHT22;4090;49.270;8.696;2023-05-16T14:45:33;18.60;99.00
8095;DHT22;4090;49.270;8.696;2023-05-16T14:48:15;18.70;97.90
8095;DHT22;4090;49.270;8.696;2023-05-16T14:50:57;18.80;96.90
8095;DHT22;4090;49.270;8.696;2023-05-16T14:53:38;18.80;96.10
8095;DHT22;4090;49.270;8.696;2023-05-16T14:56:20;18.80;95.40
8095;DHT22;4090;49.270;8.696;2023-05-16T14:59:02;18.90;95.40
8095;DHT22;4090;49.270;8.696;2023-05-16T15:01:45;18.90;94.50
8095;DHT22;4090;49.270;8.696;2023-05-16T15:04:27;19.10;94.30
8095;DHT22;4090;49.270;8.696;2023-05-16T15:07:08;19.00;94.50
8095;DHT22;4090;49.270;8.696;2023-05-16T15:09:50;19.00;93.00
8095;DHT22;4090;49.270;8.696;2023-05-16T15:12:32;19.10;93.00
8095;DHT22;4090;49.270;8.696;2023-05-16T15:15:14;19.00;92.70
8095;DHT22;4090;49.270;8.696;2023-05-16T15:17:57;19.10;94.20
8095;DHT22;4090;49.270;8.696;2023-05-16T15:20:38;19.10;94.30
8095;DHT22;4090;49.270;8.696;2023-05-16T15:23:20;19.10;93.80
8095;DHT22;4090;49.270;8.696;2023-05-16T15:26:02;19.10;92.80
8095;DHT22;4090;49.270;8.696;2023-05-16T15:28:44;19.10;93.30
8095;DHT22;4090;49.270;8.696;2023-05-16T15:31:26;19.20;93.70
8095;DHT22;4090;49.270;8.696;2023-05-16T15:34:10;19.20;93.10
8095;DHT22;4090;49.270;8.696;2023-05-16T15:36:51;19.30;93.10
8095;DHT22;4090;49.270;8.696;2023-05-16T15:39:33;19.30;93.00
8095;DHT22;4090;49.270;8.696;2023-05-16T15:42:15;19.40;93.60
8095;DHT22;4090;49.270;8.696;2023-05-16T15:44:59;19.40;93.60
8095;DHT22;4090;49.270;8.696;2023-05-16T15:47:40;19.50;93.70
8095;DHT22;4090;49.270;8.696;2023-05-16T15:50:24;19.50;93.30
8095;DHT22;4090;49.270;8.696;2023-05-16T15:53:05;19.60;93.50
8095;DHT22;4090;49.270;8.696;2023-05-16T15:55:47;19.60;92.30
8095;DHT22;4090;49.270;8.696;2023-05-16T15:58:29;19.70;92.40
8095;DHT22;4090;49.270;8.696;2023-05-16T16:01:11;19.70;92.10
8095;DHT22;4090;49.270;8.696;2023-05-16T16:03:52;19.70;92.10
8095;DHT22;4090;49.270;8.696;2023-05-16T16:06:35;19.80;91.80
8095;DHT22;4090;49.270;8.696;2023-05-16T16:09:17;19.80;85.70
8095;DHT22;4090;49.270;8.696;2023-05-16T16:11:59;19.80;87.90
8095;DHT22;4090;49.270;8.696;2023-05-16T16:14:41;19.90;87.70
8095;DHT22;4090;49.270;8.696;2023-05-16T16:17:23;19.90;87.40
8095;DHT22;4090;49.270;8.696;2023-05-16T16:20:05;19.90;86.20
8095;DHT22;4090;49.270;8.696;2023-05-16T16:22:49;20.00;84.90
8095;DHT22;4090;49.270;8.696;2023-05-16T16:25:30;20.00;85.40
8095;DHT22;4090;49.270;8.696;2023-05-16T16:28:12;20.10;84.70
8095;DHT22;4090;49.270;8.696;2023-05-16T16:30:54;20.10;83.90
8095;DHT22;4090;49.270;8.696;2023-05-16T16:33:35;20.10;82.40
8095;DHT22;4090;49.270;8.696;2023-05-16T16:36:17;20.20;83.70
8095;DHT22;4090;49.270;8.696;2023-05-16T16:39:00;20.20;82.40
8095;DHT22;4090;49.270;8.696;2023-05-16T16:41:44;20.20;81.30
8095;DHT22;4090;49.270;8.696;2023-05-16T16:44:26;20.20;80.70
8095;DHT22;4090;49.270;8.696;2023-05-16T16:47:08;20.20;80.90
8095;DHT22;4090;49.270;8.696;2023-05-16T16:49:49;20.20;80.40
8095;DHT22;4090;49.270;8.696;2023-05-16T16:52:31;20.20;80.20
8095;DHT22;4090;49.270;8.696;2023-05-16T16:55:15;20.20;80.70
8095;DHT22;4090;49.270;8.696;2023-05-16T16:57:57;20.30;83.30
8095;DHT22;4090;49.270;8.696;2023-05-16T17:00:38;20.30;80.90
8095;DHT22;4090;49.270;8.696;2023-05-16T17:03:20;20.30;81.00
8095;DHT22;4090;49.270;8.696;2023-05-16T17:06:02;20.30;79.10
8095;DHT22;4090;49.270;8.696;2023-05-16T17:08:44;20.30;77.50
8095;DHT22;4090;49.270;8.696;2023-05-16T17:11:27;20.20;79.50
8095;DHT22;4090;49.270;8.696;2023-05-16T17:14:09;20.20;79.10
8095;DHT22;4090;49.270;8.696;2023-05-16T17:16:51;20.20;77.00
8095;DHT22;4090;49.270;8.696;2023-05-16T17:19:32;20.20;78.60
8095;DHT22;4090;49.270;8.696;2023-05-16T17:22:15;20.10;77.20
8095;DHT22;4090;49.270;8.696;2023-05-16T17:24:56;20.10;75.60
8095;DHT22;4090;49.270;8.696;2023-05-16T17:27:39;20.10;76.40
8095;DHT22;4090;49.270;8.696;2023-05-16T17:30:22;20.10;78.50
8095;DHT22;4090;49.270;8.696;2023-05-16T17:33:04;20.10;79.00
8095;DHT22;4090;49.270;8.696;2023-05-16T17:35:47;20.10;76.30
8095;DHT22;4090;49.270;8.696;2023-05-16T17:38:29;20.00;76.50
8095;DHT22;4090;49.270;8.696;2023-05-16T17:41:11;20.00;77.50
8095;DHT22;4090;49.270;8.696;2023-05-16T17:43:54;20.00;78.50